x

Frying Pan Shoals, Nc Buoy (41013) Wave Buoy

8:50am - Sat 18th Apr 2015 All times are EDT. -4 hours from GMT.

  • Sig Wave height 3.6ft
  • Swell Direction
  • Peak Period 8s
  • Average Period 6s
  • Wind
    13mph, 18mph gusts
  • Sea Temp 73°f
  • Air Temp 70°f
  • Sea Pressure 1014.8mb
  • Frying Pan Shoals, Nc Buoy
  • Frying Pan Shoals, Nc Buoy

More Historic Weather Station data

Upgrade to MSW Pro to gain access to the past 30 days of data for over 8000 Wavebouys and Weather Stations around the globe.

Join Pro

Comparision Forecast

View Surf forecast
   
Sat 04/18 8:50am 3.5ft 8s 6s 13 18 mph 1014.8mb 73f 70f
7:50am 3.5ft 9s 6s 4
mph
1014.9mb 74f 72f
6:50am 4ft 8s 6s 4 7 mph 1014.5mb 73f 72f
5:50am 4ft 8s 6s 4 7 mph 1014.2mb 73f 72f
4:50am 4ft 8s 6s 4 7 mph 1014mb 73f 74f
3:50am 4.5ft 8s 6s 4 7 mph 1014.5mb 73f 74f
2:50am 4.5ft 8s 5s 7 9 mph 1014.4mb 73f 74f
1:50am 4.5ft 8s 6s 7 9 mph 1015.1mb 73f 74f
12:50am 5ft 8s 6s 9 11 mph 1015.7mb 73f 74f
Fri 04/17 11:50pm 4.5ft 7s 6s 9 11 mph 1016mb 74f 74f
10:50pm 4.5ft 8s 6s 11 13 mph 1016mb 74f 74f
9:50pm 4.5ft 8s 6s 9 11 mph 1016mb 74f 74f
8:50pm 5ft 9s 6s 2 7 mph 1015.8mb 74f 72f
7:50pm 4.5ft 7s 6s 9 11 mph 1015.3mb 74f 73f
6:50pm 5ft 8s 6s 9 11 mph 1015.1mb 74f 74f
5:50pm 5ft 9s 6s 9 11 mph 1015.1mb 74f 75f
4:50pm 5ft 9s 6s 11 13 mph 1015.2mb 74f 75f
3:50pm 5ft 8s 6s 11 13 mph 1015.9mb 73f 74f
2:50pm 5.5ft 8s 6s 9 11 mph 1016.9mb 73f 74f
1:50pm 5.5ft 8s 6s 11 13 mph 1017.7mb 73f 74f
12:50pm 5.5ft 8s 6s 13 16 mph 1018.1mb 73f 74f
11:50am 6ft 8s 6s 13 16 mph 1018.6mb 73f 74f
10:50am 6.5ft 8s 6s 18 22 mph 1018.6mb 73f 73f
9:50am 7ft 8s 6s 18 20 mph 1018.5mb 73f 73f
8:50am 7ft 8s 6s 18 22 mph 1018.9mb 73f 73f
7:50am 6.5ft 9s 6s 16 20 mph 1018.7mb 73f 73f
6:50am 7ft 9s 6s 16 20 mph 1018mb 73f 72f
5:50am 7.5ft 9s 6s 11 16 mph 1018.3mb 73f 71f
4:50am 8ft 8s 6s 18 20 mph 1018.3mb 73f 72f
3:50am 8ft 9s 6s 20 22 mph 1018.5mb 72f 72f
2:50am 7.5ft 8s 6s 18 22 mph 1019.1mb 72f 72f
1:50am 9ft 8s 6s 16 22 mph 1020.3mb 72f 72f
12:50am 8.5ft 9s 6s 18 20 mph 1020.8mb 72f 73f
Thu 04/16 11:50pm 9ft 8s 6s 20 25 mph 1020.8mb 72f 71f
10:50pm 9ft 8s 6s 20 25 mph 1021.4mb 72f 73f
9:50pm 7.5ft 9s 6s 20 22 mph 1021.7mb 73f 73f
8:50pm 7.5ft 8s 6s 13 18 mph 1021.7mb 73f 72f
7:50pm 8.5ft 9s 6s 20 25 mph 1021.3mb 73f 72f
6:50pm 8.5ft 9s 6s 22 25 mph 1021.3mb 73f 71f
5:50pm 8.5ft 8s 6s 25 29 mph 1021.2mb 73f 71f
4:50pm 9ft 8s 6s 27 31 mph 1021.1mb 73f 71f
3:50pm 8.5ft 8s 6s 25 29 mph 1021.4mb 72f 71f
2:50pm 8ft 8s 6s 27 29 mph 1022.1mb 72f 71f
1:50pm 9.5ft 8s 6s 27 31 mph 1022.3mb 71f 71f
12:50pm 9ft 8s 6s 27 34 mph 1022.3mb 71f 70f
11:50am 10ft 8s 6s 29 36 mph 1022.8mb 71f 69f
10:50am 9.5ft 8s 6s 29 34 mph 1022.6mb 71f 70f
9:50am 10.5ft 8s 6s 29 36 mph 1022mb 72f 70f
8:50am 10ft 7s 6s 31 36 mph 1021.5mb 72f 71f
7:50am 9ft 8s 6s 27 34 mph 1021.3mb 72f 70f
6:50am 8.5ft 7s 6s 27 34 mph 1020.7mb 72f 72f
5:50am 9ft 7s 6s 25 31 mph 1020.4mb 72f 71f
4:50am 9ft 8s 6s 29 38 mph 1019.7mb 72f 70f
3:50am 9ft 8s 6s 27 36 mph 1019.9mb 72f 70f
1:50am 8.5ft 8s 5s 31 38 mph 1020.3mb 71f 67f
12:50am 8.5ft 7s 5s 31 36 mph 1020.8mb 71f 67f
Wed 04/15 11:50pm 9ft 7s 5s 29 38 mph 1021.8mb 70f 66f
10:50pm 7.5ft 7s 5s 31 38 mph 1021.6mb 70f 66f
9:50pm 7.5ft 8s 5s 29 36 mph 1021.9mb 71f 67f
8:50pm 7.5ft 6s 5s 29 34 mph 1020.7mb 71f 68f
7:50pm 7ft 6s 5s 29 34 mph 1019.9mb 72f 67f
6:50pm 7.5ft 7s 5s 25 29 mph 1020mb 72f 68f
5:50pm 7ft 7s 6s 25 29 mph 1019.5mb 72f 68f
4:50pm 7ft 7s 5s 27 29 mph 1019.3mb 72f 68f
3:50pm 6.5ft 7s 5s 25 29 mph 1019.7mb 72f 68f
2:50pm 6ft 6s 5s 25 29 mph 1020.5mb 71f 67f
1:50pm 6ft 6s 5s 25 29 mph 1020.6mb 71f 67f
12:50pm 5ft 5s 5s 25 29 mph 1020.3mb 70f 66f
11:50am 4.5ft 4s 4s 25 29 mph 1020.3mb 70f 66f
10:50am 3.5ft 6s 4s 22 27 mph 1020mb 69f 65f
9:50am 3.5ft 6s 4s 22 27 mph 1019.7mb 69f 65f
8:50am 3.5ft 6s 5s 7 11 mph 1019.1mb 71f 69f
7:50am 3.5ft 6s 4s 13 16 mph 1018.1mb 72f 69f
6:50am 3.5ft 6s 4s 16 22 mph 1017.2mb 72f 73f
5:50am 3.5ft 6s 4s 16 20 mph 1016.2mb 72f 75f
4:50am 3.5ft 6s 4s 11 18 mph 1016.4mb 72f 73f
3:50am 4ft 6s 4s 18 22 mph 1016.1mb 71f 75f
2:50am 4ft 6s 4s 18 22 mph 1016.3mb 71f 75f
1:50am 4ft 6s 4s 20 22 mph 1017.2mb 70f 75f
12:50am 4.5ft 6s 4s 18 22 mph 1017.3mb 69f 75f
Tue 04/14 11:50pm 4.5ft 7s 5s 18 20 mph 1017.7mb 69f 75f
10:50pm 4.5ft 6s 5s 18 20 mph 1018.2mb 70f 75f
9:50pm 4.5ft 6s 5s 18 20 mph 1018.2mb 70f 75f
8:50pm 4.5ft 6s 5s 18 20 mph 1017.5mb 70f 75f
7:50pm 4.5ft 6s 5s 18 20 mph 1017.1mb 71f 75f
6:50pm 5ft 6s 5s 18 20 mph 1016.8mb 71f 75f
5:50pm 4.5ft 7s 5s 20 25 mph 1017.4mb 71f 75f
4:50pm 4.5ft 7s 5s 20 25 mph 1017.6mb 71f 75f
3:50pm 4.5ft 7s 5s 20 22 mph 1018.5mb 71f 75f
2:50pm 4.5ft 8s 5s 18 20 mph 1019.1mb 71f 74f
1:50pm 4.5ft 8s 5s 16 18 mph 1019.8mb 71f 73f